Time;durP1;ratioP1;P1;durP2;ratioP2;P2;SDS_P1;SDS_P2;PMS_P1;PMS_P2;Temp;Humidity;BMP_temperature;BMP_pressure;BME280_temperature;BME280_humidity;BME280_pressure;Samples;Min_cycle;Max_cycle;Signal;HPM_P1;HPM_P2
2021/07/05 00:02:11;;;;;;;10.15;5.03;;;21.80;99.90;;;;;;5072484;28;20435;-55
2021/07/05 00:04:37;;;;;;;9.15;5.63;;;21.70;99.90;;;;;;5084654;28;20024;-57
2021/07/05 00:07:04;;;;;;;11.63;5.60;;;21.70;99.90;;;;;;5075824;28;20107;-59
2021/07/05 00:09:30;;;;;;;7.13;5.35;;;21.50;99.90;;;;;;5086354;28;20066;-55
2021/07/05 00:11:56;;;;;;;7.97;5.80;;;21.40;99.90;;;;;;5085838;28;20090;-55
2021/07/05 00:14:23;;;;;;;8.38;5.88;;;21.40;99.90;;;;;;5071176;28;20032;-54
2021/07/05 00:16:51;;;;;;;7.80;4.85;;;21.40;99.90;;;;;;5081532;28;20642;-57
2021/07/05 00:19:17;;;;;;;9.23;5.55;;;21.40;99.90;;;;;;5080279;28;20029;-53
2021/07/05 00:21:42;;;;;;;5.30;4.78;;;21.40;99.90;;;;;;5077379;28;20032;-54
2021/07/05 00:24:08;;;;;;;8.85;5.13;;;21.50;99.90;;;;;;5082733;28;20024;-53
2021/07/05 00:26:37;;;;;;;5.85;4.55;;;21.50;99.90;;;;;;5081608;28;20027;-57
2021/07/05 00:29:03;;;;;;;6.22;4.20;;;21.50;99.90;;;;;;5066597;28;20021;-54
2021/07/05 00:31:31;;;;;;;6.72;4.90;;;21.60;99.90;;;;;;5087358;28;20035;-55
2021/07/05 00:33:57;;;;;;;6.50;4.50;;;21.60;99.90;;;;;;5078435;28;20028;-55
2021/07/05 00:36:23;;;;;;;25.05;5.88;;;21.60;99.90;;;;;;5082356;28;20056;-57
2021/07/05 00:38:48;;;;;;;7.72;5.07;;;21.60;99.90;;;;;;5074756;28;20048;-52
2021/07/05 00:41:14;;;;;;;7.88;4.97;;;21.60;99.90;;;;;;5076775;28;20048;-58
2021/07/05 00:43:40;;;;;;;6.28;4.63;;;21.60;99.90;;;;;;5076921;28;20044;-53
2021/07/05 00:46:06;;;;;;;8.13;4.80;;;21.50;99.90;;;;;;5072252;28;20050;-54
2021/07/05 00:48:33;;;;;;;7.70;5.00;;;21.50;99.90;;;;;;5081115;28;20119;-56
2021/07/05 00:50:59;;;;;;;7.90;4.95;;;21.50;99.90;;;;;;5075259;28;20090;-54
2021/07/05 00:53:25;;;;;;;7.00;4.85;;;21.50;99.90;;;;;;5070076;28;20422;-53
2021/07/05 00:55:51;;;;;;;8.05;5.10;;;21.50;99.90;;;;;;5084609;28;20379;-57
2021/07/05 00:58:20;;;;;;;7.43;5.55;;;21.50;99.90;;;;;;5078748;28;20277;-53
2021/07/05 01:00:46;;;;;;;6.97;5.85;;;21.50;99.90;;;;;;5078567;28;20120;-59
2021/07/05 01:03:13;;;;;;;5.97;5.03;;;21.40;99.90;;;;;;5067914;28;20037;-55
2021/07/05 01:05:38;;;;;;;8.82;6.00;;;21.30;99.90;;;;;;5072776;28;20024;-57
2021/07/05 01:08:05;;;;;;;9.77;5.85;;;21.30;99.90;;;;;;5077121;28;20039;-55
2021/07/05 01:10:31;;;;;;;9.25;5.40;;;21.20;99.90;;;;;;5077984;28;20044;-56
2021/07/05 01:12:57;;;;;;;6.75;5.22;;;21.20;99.90;;;;;;5078271;28;20032;-56
2021/07/05 01:15:27;;;;;;;9.07;5.50;;;21.10;99.90;;;;;;5076992;28;20103;-54
2021/07/05 01:17:54;;;;;;;7.35;5.57;;;21.20;99.90;;;;;;5083536;28;20036;-55
2021/07/05 01:20:24;;;;;;;6.15;5.35;;;21.20;99.90;;;;;;5077709;28;20090;-58
2021/07/05 01:22:50;;;;;;;7.38;5.65;;;21.20;99.90;;;;;;5082914;28;20499;-55
2021/07/05 01:25:21;;;;;;;5.70;4.70;;;21.20;99.90;;;;;;5081189;28;20046;-53
2021/07/05 01:27:48;;;;;;;9.57;5.38;;;21.20;99.90;;;;;;5058618;28;20534;-53
2021/07/05 01:30:17;;;;;;;11.68;6.07;;;21.30;99.90;;;;;;5070827;28;20032;-54
2021/07/05 01:32:48;;;;;;;8.73;5.47;;;21.20;99.90;;;;;;5072336;28;20411;-56
2021/07/05 01:35:15;;;;;;;8.13;5.30;;;21.20;99.90;;;;;;5080368;28;20499;-57
2021/07/05 01:37:42;;;;;;;6.72;5.63;;;21.20;99.90;;;;;;5077727;28;20107;-53
2021/07/05 01:40:15;;;;;;;9.10;5.72;;;21.30;99.90;;;;;;5079654;28;20027;-52
2021/07/05 01:42:41;;;;;;;8.57;6.30;;;21.30;99.90;;;;;;5054647;28;20091;-57
2021/07/05 01:45:07;;;;;;;8.68;6.32;;;21.30;99.90;;;;;;5068333;28;20062;-56
2021/07/05 01:47:33;;;;;;;7.25;5.72;;;21.30;99.90;;;;;;5084790;28;20063;-58
2021/07/05 01:49:59;;;;;;;6.60;5.63;;;21.30;99.90;;;;;;5077244;28;20060;-56
2021/07/05 01:52:25;;;;;;;9.52;6.32;;;21.20;99.90;;;;;;5081207;28;20429;-54
2021/07/05 01:54:50;;;;;;;9.63;6.30;;;21.10;99.90;;;;;;5076968;28;20067;-58
2021/07/05 01:57:25;;;;;;;9.57;6.18;;;21.10;99.90;;;;;;5039937;28;20047;-54
2021/07/05 01:59:56;;;;;;;10.68;5.75;;;21.10;99.90;;;;;;5061839;28;20032;-54
2021/07/05 02:02:23;;;;;;;7.95;5.90;;;21.10;99.90;;;;;;5074729;28;20025;-55
2021/07/05 02:04:49;;;;;;;9.20;5.60;;;21.00;99.90;;;;;;5073921;28;20039;-56
2021/07/05 02:07:18;;;;;;;7.25;6.32;;;21.00;99.90;;;;;;5075006;28;20032;-57
2021/07/05 02:09:47;;;;;;;8.18;5.72;;;21.00;99.90;;;;;;5082762;28;20032;-55
2021/07/05 02:12:14;;;;;;;7.55;6.07;;;21.00;99.90;;;;;;5074321;28;20037;-52
2021/07/05 02:14:41;;;;;;;8.23;5.82;;;20.90;99.90;;;;;;5071482;28;20033;-58
2021/07/05 02:17:09;;;;;;;7.47;6.18;;;20.80;99.90;;;;;;5081166;28;20025;-54
2021/07/05 02:19:37;;;;;;;12.07;7.18;;;20.80;99.90;;;;;;5072190;28;20115;-55
2021/07/05 02:22:07;;;;;;;9.38;5.63;;;20.90;99.90;;;;;;5083953;28;20494;-56
2021/07/05 02:24:33;;;;;;;8.50;5.55;;;21.00;99.90;;;;;;5061130;28;20497;-56
2021/07/05 02:26:59;;;;;;;7.57;5.85;;;21.10;99.90;;;;;;5083669;28;20024;-54
2021/07/05 02:29:25;;;;;;;7.75;5.43;;;21.10;99.90;;;;;;5070860;28;20149;-56
2021/07/05 02:31:51;;;;;;;8.65;5.60;;;21.20;99.90;;;;;;5071276;28;20032;-56
2021/07/05 02:34:17;;;;;;;8.52;5.72;;;21.20;99.90;;;;;;5070597;28;20048;-54
2021/07/05 02:36:45;;;;;;;9.15;6.32;;;21.10;99.90;;;;;;5072008;28;20036;-58
2021/07/05 02:39:10;;;;;;;10.15;6.47;;;21.10;99.90;;;;;;5076520;28;20035;-58
2021/07/05 02:41:36;;;;;;;9.93;6.55;;;21.10;99.90;;;;;;5085747;28;20028;-54
2021/07/05 02:44:03;;;;;;;9.25;6.00;;;21.10;99.90;;;;;;5058742;28;20036;-56
2021/07/05 02:46:29;;;;;;;7.75;5.95;;;21.10;99.90;;;;;;5063587;28;20028;-55
2021/07/05 02:48:55;;;;;;;8.57;6.10;;;21.10;99.90;;;;;;5074081;28;20472;-58
2021/07/05 02:51:21;;;;;;;7.68;6.00;;;21.20;99.90;;;;;;5078189;28;20039;-59
2021/07/05 02:53:47;;;;;;;10.80;6.45;;;21.10;99.90;;;;;;5068050;28;20037;-57
2021/07/05 02:56:13;;;;;;;9.75;6.50;;;21.00;99.90;;;;;;5069035;28;20064;-54
2021/07/05 02:58:39;;;;;;;9.55;6.43;;;20.90;99.90;;;;;;5072329;28;20025;-56
2021/07/05 03:01:10;;;;;;;9.45;6.00;;;20.90;99.90;;;;;;5070432;28;20085;-55
2021/07/05 03:03:36;;;;;;;8.98;6.05;;;21.00;99.90;;;;;;5076428;28;20032;-53
2021/07/05 03:06:02;;;;;;;8.57;6.18;;;21.20;99.90;;;;;;5077437;28;20068;-56
2021/07/05 03:08:28;;;;;;;7.50;6.15;;;21.20;99.90;;;;;;5069286;28;20080;-53
2021/07/05 03:10:54;;;;;;;12.07;6.93;;;21.10;99.90;;;;;;5061507;28;20036;-55
2021/07/05 03:13:21;;;;;;;9.52;7.00;;;21.10;99.90;;;;;;5075785;28;20039;-57
2021/07/05 03:15:50;;;;;;;10.85;6.55;;;21.10;99.90;;;;;;5057560;28;20093;-56
2021/07/05 03:18:17;;;;;;;11.00;7.22;;;20.80;99.90;;;;;;5074147;28;20039;-57
2021/07/05 03:20:45;;;;;;;8.65;6.53;;;20.40;99.90;;;;;;5067869;28;20028;-56
2021/07/05 03:23:13;;;;;;;7.60;5.82;;;20.40;99.90;;;;;;5086196;28;20020;-55
2021/07/05 03:25:40;;;;;;;8.32;6.00;;;20.20;99.90;;;;;;5065547;28;20028;-56
2021/07/05 03:28:08;;;;;;;5.97;5.38;;;20.20;99.90;;;;;;5042026;28;20492;-54
2021/07/05 03:30:36;;;;;;;11.30;6.47;;;20.30;99.90;;;;;;5081025;28;20475;-54
2021/07/05 03:33:02;;;;;;;9.27;6.30;;;20.10;99.90;;;;;;5082164;28;20434;-56
2021/07/05 03:35:28;;;;;;;7.45;5.80;;;20.10;99.90;;;;;;5077894;28;20510;-58
2021/07/05 03:37:55;;;;;;;8.77;6.20;;;20.10;99.90;;;;;;5076147;28;20459;-57
2021/07/05 03:40:24;;;;;;;10.02;6.10;;;20.20;99.90;;;;;;5075796;28;20043;-56
2021/07/05 03:42:51;;;;;;;9.45;6.30;;;20.20;99.90;;;;;;5083323;28;20031;-57
2021/07/05 03:45:19;;;;;;;7.63;6.00;;;20.30;99.90;;;;;;5076956;28;20384;-56
2021/07/05 03:47:47;;;;;;;9.50;6.70;;;20.40;99.90;;;;;;5077845;28;20025;-58
2021/07/05 03:50:14;;;;;;;11.05;6.13;;;20.50;99.90;;;;;;5073836;28;20371;-59
2021/07/05 03:52:40;;;;;;;7.68;6.10;;;20.60;99.90;;;;;;5079496;28;20461;-54
2021/07/05 03:55:09;;;;;;;8.50;6.07;;;20.50;99.90;;;;;;5073326;28;20124;-54
2021/07/05 03:57:35;;;;;;;10.60;6.13;;;20.60;99.90;;;;;;5042464;28;20040;-57
2021/07/05 04:00:03;;;;;;;11.32;6.78;;;20.70;99.90;;;;;;5055927;28;20039;-53
2021/07/05 04:02:29;;;;;;;8.60;6.65;;;20.80;99.90;;;;;;5074153;28;20028;-56
2021/07/05 04:04:56;;;;;;;11.35;6.63;;;20.70;99.90;;;;;;5041681;28;20368;-57
2021/07/05 04:07:22;;;;;;;7.80;6.03;;;20.80;99.90;;;;;;5076565;28;20109;-57
2021/07/05 04:09:48;;;;;;;11.68;6.90;;;20.90;99.90;;;;;;5046348;28;20065;-57
2021/07/05 04:12:19;;;;;;;9.48;6.63;;;20.90;99.90;;;;;;5080045;28;20052;-58
2021/07/05 04:14:45;;;;;;;7.35;6.25;;;20.90;99.90;;;;;;5091633;28;20032;-55
2021/07/05 04:17:11;;;;;;;10.88;6.55;;;20.90;99.90;;;;;;5076137;28;20044;-57
2021/07/05 04:19:37;;;;;;;13.45;7.28;;;20.60;99.90;;;;;;5077359;28;20028;-59
2021/07/05 04:22:03;;;;;;;11.27;7.80;;;20.10;99.90;;;;;;5083840;28;20040;-57
2021/07/05 04:24:29;;;;;;;12.30;7.45;;;19.90;99.90;;;;;;5064253;28;20041;-56
2021/07/05 04:26:54;;;;;;;8.90;6.93;;;20.00;99.90;;;;;;5075846;28;20115;-55
2021/07/05 04:29:21;;;;;;;10.68;7.00;;;20.20;99.90;;;;;;5068129;28;20068;-56
2021/07/05 04:31:46;;;;;;;9.02;7.43;;;20.50;99.90;;;;;;5073188;28;20455;-56
2021/07/05 04:34:12;;;;;;;11.73;7.07;;;20.10;99.90;;;;;;5073984;28;20143;-57
2021/07/05 04:36:38;;;;;;;10.57;6.80;;;20.00;99.90;;;;;;5063291;28;20035;-58
2021/07/05 04:39:05;;;;;;;8.25;7.07;;;20.20;99.90;;;;;;5063745;28;20047;-57
2021/07/05 04:41:32;;;;;;;8.20;6.43;;;20.20;99.90;;;;;;5075371;28;20051;-57
2021/07/05 04:43:57;;;;;;;8.73;6.75;;;20.20;99.90;;;;;;5073930;28;20032;-54
2021/07/05 04:46:24;;;;;;;8.70;6.18;;;20.30;99.90;;;;;;5060480;28;20033;-59
2021/07/05 04:48:54;;;;;;;11.57;6.22;;;20.70;99.90;;;;;;5081505;28;20043;-55
2021/07/05 04:51:20;;;;;;;10.15;6.78;;;20.90;99.90;;;;;;5073778;28;20154;-58
2021/07/05 04:53:46;;;;;;;9.20;6.60;;;21.10;99.90;;;;;;5071419;28;20082;-58
2021/07/05 04:56:12;;;;;;;8.52;6.80;;;21.40;99.90;;;;;;5074127;28;20116;-54
2021/07/05 04:58:38;;;;;;;8.48;6.72;;;21.40;99.90;;;;;;5080685;28;20112;-55
2021/07/05 05:01:04;;;;;;;10.32;7.40;;;21.60;99.90;;;;;;5072674;28;20067;-57
2021/07/05 05:03:31;;;;;;;9.43;7.22;;;21.60;99.90;;;;;;5072179;28;20381;-56
2021/07/05 05:05:57;;;;;;;10.07;7.78;;;21.70;99.90;;;;;;5066028;28;20104;-55
2021/07/05 05:08:23;;;;;;;13.80;7.40;;;21.70;99.90;;;;;;5077871;28;20482;-56
2021/07/05 05:10:49;;;;;;;15.13;6.90;;;21.70;99.90;;;;;;5079178;28;20078;-54
2021/07/05 05:13:15;;;;;;;11.68;6.97;;;22.00;99.90;;;;;;5075914;28;20056;-57
2021/07/05 05:15:41;;;;;;;10.80;6.93;;;22.10;99.90;;;;;;5077669;28;20105;-57
2021/07/05 05:18:07;;;;;;;10.65;6.72;;;22.30;99.90;;;;;;5082340;28;20476;-58
2021/07/05 05:20:33;;;;;;;9.98;6.60;;;22.20;99.90;;;;;;5071419;28;20028;-58
2021/07/05 05:22:59;;;;;;;7.85;6.53;;;22.20;99.90;;;;;;5068181;28;20463;-60
2021/07/05 05:25:25;;;;;;;7.50;6.53;;;22.30;99.90;;;;;;5067738;28;20028;-59
2021/07/05 05:27:53;;;;;;;7.03;5.43;;;22.20;99.90;;;;;;5076662;28;20043;-54
2021/07/05 05:30:21;;;;;;;9.07;6.18;;;22.00;99.90;;;;;;5072033;28;20495;-55
2021/07/05 05:32:48;;;;;;;8.70;5.90;;;22.20;99.90;;;;;;5069307;28;20040;-57
2021/07/05 05:35:16;;;;;;;7.55;5.28;;;22.10;99.90;;;;;;5048264;28;20560;-55
2021/07/05 05:37:42;;;;;;;9.68;4.93;;;22.10;99.90;;;;;;5071483;28;20395;-54
2021/07/05 05:40:08;;;;;;;8.27;4.68;;;22.20;99.90;;;;;;5060710;28;20025;-58
2021/07/05 05:42:34;;;;;;;7.93;4.20;;;22.30;99.90;;;;;;5051001;28;20036;-56
2021/07/05 05:45:00;;;;;;;10.75;4.07;;;22.40;99.90;;;;;;5070221;28;20046;-58
2021/07/05 05:47:26;;;;;;;5.70;3.83;;;22.60;99.90;;;;;;5074433;28;20416;-54
2021/07/05 05:49:51;;;;;;;10.77;4.10;;;22.60;99.90;;;;;;5071080;28;20024;-57
2021/07/05 05:52:17;;;;;;;10.45;4.25;;;22.70;99.90;;;;;;5071825;28;20049;-56
2021/07/05 05:54:43;;;;;;;8.10;4.28;;;22.90;99.90;;;;;;5067687;28;20048;-54
2021/07/05 05:57:24;;;;;;;8.13;3.95;;;23.10;99.90;;;;;;5069136;28;20062;-55
2021/07/05 05:59:51;;;;;;;7.77;4.10;;;23.10;99.90;;;;;;5038512;28;20048;-59
2021/07/05 06:02:17;;;;;;;7.35;4.22;;;23.00;99.90;;;;;;5068937;28;20036;-56
2021/07/05 06:04:43;;;;;;;8.05;4.88;;;23.00;99.90;;;;;;5040634;28;20060;-55
2021/07/05 06:07:09;;;;;;;8.45;4.45;;;23.10;99.90;;;;;;5068291;28;20041;-54
2021/07/05 06:09:34;;;;;;;6.78;4.82;;;23.00;99.90;;;;;;5068925;28;20105;-57
2021/07/05 06:12:00;;;;;;;6.18;4.82;;;23.30;99.90;;;;;;5067516;28;20052;-60
2021/07/05 06:14:26;;;;;;;7.97;4.47;;;23.10;99.90;;;;;;5066453;28;20036;-58
2021/07/05 06:16:51;;;;;;;7.07;4.45;;;23.40;99.90;;;;;;5056920;28;20045;-56
2021/07/05 06:19:17;;;;;;;6.82;4.60;;;23.30;99.90;;;;;;5066727;28;20032;-58
2021/07/05 06:21:43;;;;;;;5.63;4.97;;;23.50;99.90;;;;;;5065947;28;20040;-55
2021/07/05 06:24:09;;;;;;;9.93;5.07;;;23.90;99.90;;;;;;5062992;28;20044;-61
2021/07/05 06:26:34;;;;;;;9.07;5.13;;;24.20;99.90;;;;;;5071158;28;20118;-62
2021/07/05 06:29:00;;;;;;;7.55;5.20;;;24.00;99.90;;;;;;5069208;28;20104;-63
2021/07/05 06:31:26;;;;;;;8.38;5.93;;;24.00;99.90;;;;;;5040876;28;20123;-60
2021/07/05 06:33:52;;;;;;;7.50;5.35;;;23.80;99.90;;;;;;5075110;28;20054;-57
2021/07/05 06:36:17;;;;;;;10.32;5.65;;;23.60;99.90;;;;;;5068876;28;20131;-59
2021/07/05 06:38:43;;;;;;;8.73;6.03;;;23.90;99.90;;;;;;5071491;28;20032;-62
2021/07/05 06:41:09;;;;;;;6.88;6.07;;;24.20;99.90;;;;;;5072845;28;20040;-66
2021/07/05 06:43:35;;;;;;;9.73;6.20;;;23.80;99.90;;;;;;5073714;28;20036;-58
2021/07/05 06:46:01;;;;;;;7.78;6.45;;;23.80;99.90;;;;;;5063429;28;20053;-63
2021/07/05 06:48:27;;;;;;;9.82;7.10;;;24.00;99.90;;;;;;5071488;28;20040;-64
2021/07/05 06:50:53;;;;;;;8.95;6.30;;;;;;;;;;5067014;28;20511;-55
2021/07/05 06:53:19;;;;;;;10.98;7.72;;;;;;;;;;5067803;28;20048;-70
2021/07/05 06:55:45;;;;;;;13.68;7.38;;;23.90;99.90;;;;;;5080854;28;20027;-65
2021/07/05 06:58:10;;;;;;;9.63;7.22;;;23.90;99.90;;;;;;5070266;28;20040;-65
2021/07/05 07:00:37;;;;;;;8.13;6.68;;;24.50;99.90;;;;;;5040493;28;20044;-64
2021/07/05 07:03:05;;;;;;;10.57;7.00;;;24.20;99.90;;;;;;5064734;28;20075;-65
2021/07/05 07:05:33;;;;;;;8.95;6.85;;;24.10;99.90;;;;;;5071685;28;20060;-57
2021/07/05 07:08:00;;;;;;;8.88;6.82;;;24.50;99.90;;;;;;5078838;28;20060;-59
2021/07/05 07:10:27;;;;;;;10.35;6.95;;;;;;;;;;5075957;28;20060;-57
2021/07/05 07:12:55;;;;;;;8.85;6.75;;;24.00;99.90;;;;;;5090669;28;20463;-63
2021/07/05 07:15:25;;;;;;;10.75;7.28;;;;;;;;;;5074865;28;20033;-61
2021/07/05 07:20:40;;;;;;;9.05;7.38;;;;;;;;;;5061642;28;20039;-58
2021/07/05 07:23:05;;;;;;;10.48;7.18;;;24.80;99.90;;;;;;5043079;28;20037;-57
2021/07/05 07:25:32;;;;;;;8.85;6.85;;;;;;;;;;5045950;28;20070;-64
2021/07/05 07:27:57;;;;;;;8.88;6.97;;;24.90;99.90;;;;;;5028559;28;20104;-59
2021/07/05 07:30:23;;;;;;;11.70;7.60;;;;;;;;;;5056104;28;20033;-58
2021/07/05 07:32:49;;;;;;;9.90;7.15;;;24.90;99.90;;;;;;5053641;28;20041;-58
2021/07/05 07:35:17;;;;;;;12.57;7.82;;;25.30;99.90;;;;;;5060003;28;20144;-62
2021/07/05 07:37:45;;;;;;;7.57;6.88;;;25.50;99.90;;;;;;5056938;28;20547;-64
2021/07/05 07:40:16;;;;;;;11.07;7.60;;;25.80;99.90;;;;;;5063048;28;20029;-61
2021/07/05 07:42:42;;;;;;;9.00;7.03;;;;;;;;;;5056007;28;20139;-69
2021/07/05 07:45:09;;;;;;;9.88;7.00;;;26.30;99.90;;;;;;5054105;28;20415;-64
2021/07/05 07:47:35;;;;;;;8.93;6.03;;;26.30;99.90;;;;;;5023800;28;20033;-64
2021/07/05 07:50:02;;;;;;;8.25;6.38;;;26.40;99.90;;;;;;5055893;28;20021;-59
2021/07/05 07:52:28;;;;;;;13.20;7.20;;;25.90;99.90;;;;;;5057479;28;20076;-60
2021/07/05 07:54:54;;;;;;;11.15;6.38;;;25.80;99.90;;;;;;5045469;28;20036;-59
2021/07/05 07:57:20;;;;;;;15.38;7.63;;;26.00;99.90;;;;;;5053705;28;20040;-66
2021/07/05 07:59:46;;;;;;;8.52;6.75;;;26.30;99.90;;;;;;5029695;28;20430;-60
2021/07/05 08:02:12;;;;;;;10.93;7.07;;;26.20;99.90;;;;;;5077900;28;20029;-64
2021/07/05 08:04:39;;;;;;;10.57;7.50;;;26.00;99.90;;;;;;5080715;28;20032;-63
2021/07/05 08:07:05;;;;;;;10.88;7.90;;;25.80;99.90;;;;;;5071864;28;20033;-62
2021/07/05 08:09:32;;;;;;;11.70;7.95;;;25.60;99.90;;;;;;5072498;28;20039;-61
2021/07/05 08:11:57;;;;;;;11.77;7.65;;;26.00;99.90;;;;;;5073244;28;20119;-59
2021/07/05 08:14:23;;;;;;;8.98;7.68;;;25.80;99.90;;;;;;5070955;28;20123;-60
2021/07/05 08:16:49;;;;;;;12.40;8.07;;;25.90;99.90;;;;;;5068192;28;20029;-57
2021/07/05 08:19:15;;;;;;;10.25;7.57;;;25.60;99.90;;;;;;5049317;28;20135;-60
2021/07/05 08:21:41;;;;;;;10.13;7.68;;;25.50;99.90;;;;;;5078701;28;20540;-57
2021/07/05 08:24:07;;;;;;;9.18;7.05;;;;;;;;;;5062495;28;20082;-56
2021/07/05 08:26:34;;;;;;;7.97;6.90;;;25.70;99.90;;;;;;5079047;28;20028;-57
2021/07/05 08:29:00;;;;;;;8.38;6.22;;;25.80;99.90;;;;;;5082437;28;20058;-60
2021/07/05 08:31:26;;;;;;;8.68;5.82;;;26.00;99.90;;;;;;5081413;28;20036;-59
2021/07/05 08:33:52;;;;;;;7.95;5.65;;;;;;;;;;5083574;28;20032;-60
2021/07/05 08:36:20;;;;;;;7.55;6.57;;;27.00;99.90;;;;;;5068481;28;20051;-60
2021/07/05 08:38:46;;;;;;;8.38;5.85;;;27.20;99.90;;;;;;5076779;28;20044;-59
2021/07/05 08:41:13;;;;;;;8.35;5.50;;;27.60;99.80;;;;;;5073486;28;20093;-59
2021/07/05 08:43:42;;;;;;;8.63;5.80;;;27.80;99.90;;;;;;5061137;28;20372;-58
2021/07/05 08:46:08;;;;;;;8.05;6.22;;;27.60;99.20;;;;;;5084789;28;20051;-58
2021/07/05 08:48:36;;;;;;;7.55;6.20;;;27.30;99.40;;;;;;5067834;28;20033;-56
2021/07/05 08:51:04;;;;;;;7.28;6.03;;;27.20;98.80;;;;;;5069393;28;20047;-60
2021/07/05 08:53:30;;;;;;;10.57;5.40;;;27.60;97.50;;;;;;5067790;28;20028;-59
2021/07/05 08:55:56;;;;;;;11.68;5.75;;;28.80;97.80;;;;;;5082862;28;20063;-58
2021/07/05 08:58:23;;;;;;;6.05;4.90;;;29.30;95.50;;;;;;5071523;28;20061;-62
2021/07/05 09:00:49;;;;;;;7.25;5.30;;;30.20;94.50;;;;;;5054743;28;20483;-61
2021/07/05 09:03:14;;;;;;;7.93;6.25;;;29.20;94.20;;;;;;5076947;28;20029;-58
2021/07/05 09:05:40;;;;;;;7.28;5.65;;;29.30;94.10;;;;;;5067712;28;20024;-60
2021/07/05 09:08:07;;;;;;;9.27;5.53;;;30.50;94.30;;;;;;5069453;28;20399;-61
2021/07/05 09:10:45;;;;;;;8.15;5.65;;;30.40;92.50;;;;;;5090171;28;20043;-60
2021/07/05 09:13:23;;;;;;;9.15;5.15;;;30.60;93.40;;;;;;5061292;28;20037;-61
2021/07/05 09:16:01;;;;;;;10.18;5.30;;;30.00;91.60;;;;;;5065655;28;20025;-59
2021/07/05 09:18:47;;;;;;;5.25;4.65;;;29.40;92.10;;;;;;5071460;28;20036;-60
2021/07/05 09:21:17;;;;;;;7.63;4.85;;;29.50;91.90;;;;;;5072758;28;20480;-60
2021/07/05 09:23:52;;;;;;;6.72;5.35;;;30.40;90.20;;;;;;5076849;28;20020;-60
2021/07/05 09:26:25;;;;;;;6.63;4.95;;;29.60;91.40;;;;;;5074290;28;20056;-59
2021/07/05 09:28:52;;;;;;;6.53;5.68;;;28.80;91.90;;;;;;5073287;28;20036;-61
2021/07/05 09:31:41;;;;;;;9.90;5.45;;;27.80;93.10;;;;;;5040451;28;20043;-57
2021/07/05 09:34:21;;;;;;;8.88;5.05;;;27.60;93.50;;;;;;5052123;28;20044;-63
2021/07/05 09:36:48;;;;;;;5.90;5.15;;;27.50;94.80;;;;;;5046556;28;20047;-59
2021/07/05 09:39:17;;;;;;;11.13;5.05;;;27.60;93.30;;;;;;5053072;28;20197;-62
2021/07/05 09:41:43;;;;;;;6.38;5.00;;;27.90;93.20;;;;;;5059064;28;20036;-59
2021/07/05 09:44:15;;;;;;;7.15;4.60;;;27.60;93.40;;;;;;5037281;28;20091;-61
2021/07/05 09:46:51;;;;;;;8.20;4.90;;;28.00;93.50;;;;;;5017731;28;20053;-59
2021/07/05 09:49:28;;;;;;;7.80;5.53;;;27.60;93.20;;;;;;5057305;28;20480;-59
2021/07/05 09:52:09;;;;;;;8.43;5.38;;;27.30;93.90;;;;;;5052583;28;20131;-57
2021/07/05 09:54:37;;;;;;;11.20;6.27;;;27.30;94.30;;;;;;5057586;28;20033;-62
2021/07/05 09:57:05;;;;;;;9.88;5.10;;;27.10;94.20;;;;;;5031348;28;20154;-59
2021/07/05 09:59:32;;;;;;;5.47;4.53;;;27.50;93.90;;;;;;5053884;28;20112;-58
2021/07/05 10:01:59;;;;;;;8.18;5.07;;;27.50;94.20;;;;;;5060285;28;20036;-62
2021/07/05 10:04:28;;;;;;;6.65;5.32;;;27.90;94.20;;;;;;5069357;28;20393;-61
2021/07/05 10:06:59;;;;;;;4.82;4.13;;;27.50;93.30;;;;;;5067753;28;20435;-58
2021/07/05 10:09:46;;;;;;;6.40;4.78;;;28.00;92.20;;;;;;5050927;28;20460;-65
2021/07/05 10:12:32;;;;;;;6.30;4.70;;;28.50;91.60;;;;;;5069742;28;20036;-57
2021/07/05 10:15:02;;;;;;;7.38;4.38;;;28.70;92.30;;;;;;5062292;28;20021;-58
2021/07/05 10:17:29;;;;;;;7.07;4.20;;;29.50;89.50;;;;;;5067207;28;20471;-59
2021/07/05 10:19:55;;;;;;;5.90;4.18;;;30.40;90.10;;;;;;5074143;28;20361;-59
2021/07/05 10:22:22;;;;;;;4.93;4.10;;;32.30;84.20;;;;;;5077664;28;20060;-62
2021/07/05 10:24:49;;;;;;;5.15;4.38;;;31.70;81.80;;;;;;5059782;28;20033;-60
2021/07/05 10:27:15;;;;;;;5.38;4.25;;;32.90;83.70;;;;;;5052495;28;20044;-59
2021/07/05 10:29:44;;;;;;;7.85;4.43;;;32.40;79.30;;;;;;5073681;28;20044;-60
2021/07/05 10:32:10;;;;;;;6.78;5.03;;;32.70;77.90;;;;;;5073118;28;20132;-60
2021/07/05 10:34:37;;;;;;;6.57;4.22;;;32.80;76.00;;;;;;5077037;28;20140;-59
2021/07/05 10:37:05;;;;;;;6.68;4.35;;;33.80;75.90;;;;;;5081334;28;20037;-60
2021/07/05 10:39:33;;;;;;;5.90;4.68;;;;;;;;;;5074413;28;20032;-64
2021/07/05 10:41:59;;;;;;;5.88;4.38;;;35.80;69.20;;;;;;5073734;28;20033;-60
2021/07/05 10:44:43;;;;;;;4.95;4.03;;;36.20;70.20;;;;;;5072023;28;20039;-61
2021/07/05 10:47:09;;;;;;;5.80;4.53;;;35.10;67.80;;;;;;5068876;28;20048;-60
2021/07/05 10:49:35;;;;;;;4.70;4.28;;;37.00;67.50;;;;;;5078390;28;20107;-62
2021/07/05 10:52:12;;;;;;;5.95;4.50;;;35.80;69.00;;;;;;5078994;28;20109;-62
2021/07/05 10:54:55;;;;;;;8.18;4.43;;;36.40;67.90;;;;;;5083403;28;20036;-61
2021/07/05 10:57:45;;;;;;;5.40;4.90;;;36.40;83.70;;;;;;5071729;28;20021;-62
2021/07/05 11:00:18;;;;;;;5.03;4.53;;;35.40;72.20;;;;;;5073574;28;20029;-63
2021/07/05 11:02:45;;;;;;;9.40;4.75;;;;;;;;;;5067556;28;20171;-58
2021/07/05 11:05:41;;;;;;;6.72;4.45;;;36.40;94.60;;;;;;5070325;28;20086;-56
2021/07/05 11:08:19;;;;;;;8.13;4.45;;;34.80;81.80;;;;;;5076883;28;20050;-59
2021/07/05 11:10:45;;;;;;;5.53;4.93;;;32.90;81.30;;;;;;5082796;28;20072;-58
2021/07/05 11:13:11;;;;;;;7.00;4.68;;;33.20;77.60;;;;;;5070843;28;20047;-57
2021/07/05 11:15:58;;;;;;;7.63;4.63;;;32.80;71.40;;;;;;5082595;28;20028;-62
2021/07/05 11:18:36;;;;;;;6.35;4.90;;;32.90;77.30;;;;;;5047520;28;20036;-60
2021/07/05 11:21:22;;;;;;;6.93;4.68;;;33.90;71.70;;;;;;5070042;28;20029;-60
2021/07/05 11:23:54;;;;;;;9.68;5.65;;;36.40;68.60;;;;;;5051626;28;20052;-60
2021/07/05 11:26:22;;;;;;;6.35;4.95;;;;;;;;;;5053283;28;20041;-61
2021/07/05 11:29:07;;;;;;;7.07;4.90;;;37.30;64.30;;;;;;5056632;28;20052;-60
2021/07/05 11:32:05;;;;;;;8.68;4.55;;;36.00;65.60;;;;;;5056960;28;20543;-60
2021/07/05 11:34:35;;;;;;;6.45;4.90;;;34.90;67.40;;;;;;5010871;28;20042;-63
2021/07/05 11:37:13;;;;;;;6.25;4.63;;;35.60;67.80;;;;;;5006295;28;20517;-63
2021/07/05 11:39:40;;;;;;;7.20;4.68;;;;;;;;;;5010151;28;20033;-59
2021/07/05 11:42:06;;;;;;;5.28;4.47;;;;;;;;;;5008077;28;20485;-59
2021/07/05 11:44:51;;;;;;;9.45;5.13;;;41.90;58.00;;;;;;5009608;28;20141;-61
2021/07/05 11:47:36;;;;;;;6.07;4.40;;;43.80;55.90;;;;;;5000466;28;20038;-61
2021/07/05 11:50:17;;;;;;;10.35;4.82;;;42.60;54.90;;;;;;5016797;28;20044;-65
2021/07/05 11:52:47;;;;;;;8.00;4.50;;;41.60;55.60;;;;;;4987789;28;20508;-61
2021/07/05 11:55:13;;;;;;;6.80;4.03;;;42.70;54.50;;;;;;5013316;28;20046;-60
2021/07/05 11:57:49;;;;;;;6.53;3.97;;;41.20;55.10;;;;;;5018862;28;20039;-62
2021/07/05 12:00:16;;;;;;;7.88;4.95;;;37.60;57.70;;;;;;5012206;28;20030;-63
2021/07/05 12:02:43;;;;;;;6.47;4.00;;;38.60;59.70;;;;;;5010774;28;20037;-60
2021/07/05 12:05:12;;;;;;;5.07;4.57;;;39.40;58.60;;;;;;5026924;28;22016;-57
2021/07/05 12:07:38;;;;;;;6.88;4.90;;;;;;;;;;5035488;28;20025;-57
2021/07/05 12:10:09;;;;;;;4.15;3.75;;;40.30;56.50;;;;;;5030108;28;20056;-61
2021/07/05 12:12:35;;;;;;;8.23;5.55;;;40.60;56.00;;;;;;5029981;28;20096;-58
2021/07/05 12:15:04;;;;;;;7.03;4.40;;;39.10;56.70;;;;;;5028974;28;20030;-58
2021/07/05 12:17:30;;;;;;;6.90;4.45;;;38.80;55.80;;;;;;5035316;28;20033;-61
2021/07/05 12:19:56;;;;;;;5.07;4.57;;;39.30;55.80;;;;;;5025845;28;20094;-59
2021/07/05 12:22:25;;;;;;;7.47;4.40;;;42.70;59.30;;;;;;5025274;28;20087;-60
2021/07/05 12:24:53;;;;;;;4.78;4.38;;;41.50;54.50;;;;;;5036733;28;20033;-62
2021/07/05 12:27:24;;;;;;;7.57;4.97;;;;;;;;;;5024510;28;20101;-60
2021/07/05 12:29:57;;;;;;;7.43;4.72;;;39.40;55.90;;;;;;5025021;28;20091;-59
2021/07/05 12:32:32;;;;;;;5.40;4.78;;;39.60;55.10;;;;;;5029467;28;20075;-60
2021/07/05 12:35:05;;;;;;;5.70;3.95;;;39.40;57.10;;;;;;5051839;28;20048;-60
2021/07/05 12:37:40;;;;;;;5.40;3.88;;;43.50;52.60;;;;;;5064451;28;20040;-61
2021/07/05 12:40:15;;;;;;;5.05;4.38;;;42.80;52.40;;;;;;5073858;28;20025;-60
2021/07/05 12:42:42;;;;;;;7.53;4.55;;;;;;;;;;5087654;28;20080;-60
2021/07/05 12:45:12;;;;;;;4.35;3.95;;;;;;;;;;5057205;28;20044;-60
2021/07/05 12:47:44;;;;;;;5.97;4.28;;;;;;;;;;5092069;28;20040;-60
2021/07/05 12:50:13;;;;;;;6.47;4.13;;;40.20;51.80;;;;;;5060441;28;20499;-62
2021/07/05 12:52:39;;;;;;;4.93;3.97;;;;;;;;;;5070007;28;20044;-62
2021/07/05 12:55:15;;;;;;;6.97;3.92;;;45.10;49.60;;;;;;5077654;28;20047;-60
2021/07/05 12:57:49;;;;;;;5.43;4.40;;;46.50;48.10;;;;;;5082361;28;20032;-63
2021/07/05 13:00:15;;;;;;;5.20;3.80;;;42.90;48.60;;;;;;5069724;28;20056;-61